sensor_id;sensor_type;location;lat;lon;timestamp;pressure;altitude;pressure_sealevel;temperature;humidity
75788;BME280;64406;50.024;14.492;2023-05-02T00:00:44;97806.53;;;11.88;67.87
75788;BME280;64406;50.024;14.492;2023-05-02T00:03:14;97814.44;;;11.84;68.01
75788;BME280;64406;50.024;14.492;2023-05-02T00:05:41;97810.16;;;11.83;68.09
75788;BME280;64406;50.024;14.492;2023-05-02T00:08:07;97807.81;;;11.77;68.25
75788;BME280;64406;50.024;14.492;2023-05-02T00:10:33;97805.31;;;11.80;67.46
75788;BME280;64406;50.024;14.492;2023-05-02T00:12:59;97807.28;;;11.75;68.80
75788;BME280;64406;50.024;14.492;2023-05-02T00:15:24;97809.00;;;11.70;68.90
75788;BME280;64406;50.024;14.492;2023-05-02T00:17:52;97809.28;;;11.69;68.75
75788;BME280;64406;50.024;14.492;2023-05-02T00:20:17;97803.44;;;11.62;69.31
75788;BME280;64406;50.024;14.492;2023-05-02T00:22:43;97805.34;;;11.61;68.96
75788;BME280;64406;50.024;14.492;2023-05-02T00:25:09;97820.75;;;11.61;69.13
75788;BME280;64406;50.024;14.492;2023-05-02T00:27:34;97819.94;;;11.60;69.66
75788;BME280;64406;50.024;14.492;2023-05-02T00:30:00;97821.03;;;11.59;69.95
75788;BME280;64406;50.024;14.492;2023-05-02T00:32:26;97817.31;;;11.55;70.00
75788;BME280;64406;50.024;14.492;2023-05-02T00:34:52;97817.13;;;11.52;69.32
75788;BME280;64406;50.024;14.492;2023-05-02T00:37:18;97812.22;;;11.54;69.91
75788;BME280;64406;50.024;14.492;2023-05-02T00:39:44;97824.97;;;11.48;70.18
75788;BME280;64406;50.024;14.492;2023-05-02T00:42:10;97817.00;;;11.43;70.16
75788;BME280;64406;50.024;14.492;2023-05-02T00:44:35;97815.09;;;11.43;70.77
75788;BME280;64406;50.024;14.492;2023-05-02T00:47:01;97814.56;;;11.41;71.38
75788;BME280;64406;50.024;14.492;2023-05-02T00:49:27;97820.25;;;11.40;70.68
75788;BME280;64406;50.024;14.492;2023-05-02T00:51:53;97817.38;;;11.36;70.88
75788;BME280;64406;50.024;14.492;2023-05-02T00:54:19;97821.13;;;11.35;70.68
75788;BME280;64406;50.024;14.492;2023-05-02T00:56:45;97825.31;;;11.28;71.19
75788;BME280;64406;50.024;14.492;2023-05-02T00:59:12;97825.09;;;11.24;71.93
75788;BME280;64406;50.024;14.492;2023-05-02T01:04:23;97827.19;;;11.27;72.11
75788;BME280;64406;50.024;14.492;2023-05-02T01:07:06;97824.66;;;11.17;71.96
75788;BME280;64406;50.024;14.492;2023-05-02T01:14:52;97838.50;;;11.10;71.85
75788;BME280;64406;50.024;14.492;2023-05-02T01:17:24;97842.06;;;11.06;72.62
75788;BME280;64406;50.024;14.492;2023-05-02T01:19:57;97841.63;;;10.99;73.20
75788;BME280;64406;50.024;14.492;2023-05-02T01:22:28;97841.50;;;10.90;73.15
75788;BME280;64406;50.024;14.492;2023-05-02T01:27:59;97851.59;;;10.79;73.62
75788;BME280;64406;50.024;14.492;2023-05-02T01:30:27;97858.28;;;10.82;74.08
75788;BME280;64406;50.024;14.492;2023-05-02T01:32:56;97854.88;;;10.76;74.39
75788;BME280;64406;50.024;14.492;2023-05-02T01:35:23;97855.09;;;10.80;73.72
75788;BME280;64406;50.024;14.492;2023-05-02T01:37:51;97860.03;;;10.73;74.03
75788;BME280;64406;50.024;14.492;2023-05-02T01:40:19;97863.50;;;10.73;74.41
75788;BME280;64406;50.024;14.492;2023-05-02T01:42:51;97860.06;;;10.68;73.84
75788;BME280;64406;50.024;14.492;2023-05-02T01:45:18;97859.63;;;10.60;73.84
75788;BME280;64406;50.024;14.492;2023-05-02T01:47:45;97859.94;;;10.59;74.29
75788;BME280;64406;50.024;14.492;2023-05-02T01:50:15;97856.72;;;10.57;73.97
75788;BME280;64406;50.024;14.492;2023-05-02T01:52:43;97853.00;;;10.53;73.72
75788;BME280;64406;50.024;14.492;2023-05-02T01:55:12;97861.66;;;10.50;73.99
75788;BME280;64406;50.024;14.492;2023-05-02T01:57:39;97861.38;;;10.51;73.86
75788;BME280;64406;50.024;14.492;2023-05-02T02:00:07;97853.34;;;10.46;73.93
75788;BME280;64406;50.024;14.492;2023-05-02T02:02:34;97855.78;;;10.43;73.87
75788;BME280;64406;50.024;14.492;2023-05-02T02:05:01;97865.50;;;10.44;73.66
75788;BME280;64406;50.024;14.492;2023-05-02T02:07:29;97860.16;;;10.39;74.46
75788;BME280;64406;50.024;14.492;2023-05-02T02:09:55;97860.22;;;10.33;74.08
75788;BME280;64406;50.024;14.492;2023-05-02T02:12:30;97854.03;;;10.33;73.82
75788;BME280;64406;50.024;14.492;2023-05-02T02:15:07;97872.06;;;10.32;74.31
75788;BME280;64406;50.024;14.492;2023-05-02T02:17:48;97869.41;;;10.27;73.69
75788;BME280;64406;50.024;14.492;2023-05-02T02:20:14;97875.66;;;10.23;74.29
75788;BME280;64406;50.024;14.492;2023-05-02T02:22:42;97888.28;;;10.22;73.85
75788;BME280;64406;50.024;14.492;2023-05-02T02:25:14;97885.66;;;10.17;74.34
75788;BME280;64406;50.024;14.492;2023-05-02T02:27:40;97884.59;;;10.13;74.50
75788;BME280;64406;50.024;14.492;2023-05-02T02:30:07;97892.50;;;10.04;74.54
75788;BME280;64406;50.024;14.492;2023-05-02T02:32:34;97884.22;;;9.96;74.69
75788;BME280;64406;50.024;14.492;2023-05-02T02:35:00;97894.28;;;9.85;75.44
75788;BME280;64406;50.024;14.492;2023-05-02T02:37:32;97894.94;;;9.72;75.96
75788;BME280;64406;50.024;14.492;2023-05-02T02:40:04;97900.94;;;9.59;76.34
75788;BME280;64406;50.024;14.492;2023-05-02T02:42:44;97906.66;;;9.47;76.66
75788;BME280;64406;50.024;14.492;2023-05-02T02:45:37;97899.50;;;9.32;77.47
75788;BME280;64406;50.024;14.492;2023-05-02T02:53:16;97912.59;;;8.94;79.22
75788;BME280;64406;50.024;14.492;2023-05-02T02:55:44;97915.28;;;8.89;78.95
75788;BME280;64406;50.024;14.492;2023-05-02T02:58:20;97912.66;;;8.79;79.38
75788;BME280;64406;50.024;14.492;2023-05-02T03:00:46;97906.75;;;8.77;79.34
75788;BME280;64406;50.024;14.492;2023-05-02T03:03:14;97915.94;;;8.66;79.75
75788;BME280;64406;50.024;14.492;2023-05-02T03:05:43;97914.84;;;8.62;79.93
75788;BME280;64406;50.024;14.492;2023-05-02T03:08:09;97920.22;;;8.62;80.74
75788;BME280;64406;50.024;14.492;2023-05-02T03:10:35;97921.25;;;8.71;80.38
75788;BME280;64406;50.024;14.492;2023-05-02T03:13:01;97924.50;;;8.73;80.30
75788;BME280;64406;50.024;14.492;2023-05-02T03:17:55;97922.63;;;8.68;80.23
75788;BME280;64406;50.024;14.492;2023-05-02T03:20:20;97913.78;;;8.63;80.86
75788;BME280;64406;50.024;14.492;2023-05-02T03:22:46;97929.59;;;8.64;80.57
75788;BME280;64406;50.024;14.492;2023-05-02T03:25:11;97929.91;;;8.58;80.51
75788;BME280;64406;50.024;14.492;2023-05-02T03:27:37;97930.44;;;8.60;80.38
75788;BME280;64406;50.024;14.492;2023-05-02T03:30:03;97930.47;;;8.50;80.58
75788;BME280;64406;50.024;14.492;2023-05-02T03:32:29;97928.59;;;8.45;80.91
75788;BME280;64406;50.024;14.492;2023-05-02T03:34:54;97933.44;;;8.43;81.28
75788;BME280;64406;50.024;14.492;2023-05-02T03:37:23;97939.88;;;8.42;81.39
75788;BME280;64406;50.024;14.492;2023-05-02T03:39:49;97947.41;;;8.40;81.39
75788;BME280;64406;50.024;14.492;2023-05-02T03:42:14;97935.84;;;8.29;82.04
75788;BME280;64406;50.024;14.492;2023-05-02T03:44:40;97948.97;;;8.56;81.47
75788;BME280;64406;50.024;14.492;2023-05-02T03:47:06;97948.69;;;8.63;80.80
75788;BME280;64406;50.024;14.492;2023-05-02T03:49:34;97955.13;;;8.72;80.09
75788;BME280;64406;50.024;14.492;2023-05-02T03:52:01;97962.09;;;8.78;80.37
75788;BME280;64406;50.024;14.492;2023-05-02T03:54:32;97952.94;;;8.79;79.94
75788;BME280;64406;50.024;14.492;2023-05-02T03:56:57;97953.47;;;8.81;79.91
75788;BME280;64406;50.024;14.492;2023-05-02T03:59:23;97963.91;;;8.88;79.81
75788;BME280;64406;50.024;14.492;2023-05-02T04:01:49;97966.59;;;8.88;79.22
75788;BME280;64406;50.024;14.492;2023-05-02T04:04:15;97963.91;;;8.93;79.43
75788;BME280;64406;50.024;14.492;2023-05-02T04:06:41;97969.00;;;8.94;79.02
75788;BME280;64406;50.024;14.492;2023-05-02T04:09:06;97976.78;;;8.96;79.58
75788;BME280;64406;50.024;14.492;2023-05-02T04:11:32;97962.31;;;8.92;79.25
75788;BME280;64406;50.024;14.492;2023-05-02T04:13:58;97971.97;;;8.98;79.53
75788;BME280;64406;50.024;14.492;2023-05-02T04:16:24;97980.25;;;9.07;79.08
75788;BME280;64406;50.024;14.492;2023-05-02T04:18:49;97969.75;;;9.10;79.19
75788;BME280;64406;50.024;14.492;2023-05-02T04:21:15;97970.78;;;9.19;78.67
75788;BME280;64406;50.024;14.492;2023-05-02T04:23:41;97976.94;;;9.25;78.57
75788;BME280;64406;50.024;14.492;2023-05-02T04:26:07;97981.22;;;9.31;78.48
75788;BME280;64406;50.024;14.492;2023-05-02T04:28:33;97973.41;;;9.30;78.23
75788;BME280;64406;50.024;14.492;2023-05-02T04:31:00;97986.31;;;9.38;78.17
75788;BME280;64406;50.024;14.492;2023-05-02T04:33:25;97987.84;;;9.44;77.87
75788;BME280;64406;50.024;14.492;2023-05-02T04:35:51;97987.06;;;9.43;77.36
75788;BME280;64406;50.024;14.492;2023-05-02T04:38:17;97996.19;;;9.47;77.32
75788;BME280;64406;50.024;14.492;2023-05-02T04:40:43;97998.88;;;9.47;77.64
75788;BME280;64406;50.024;14.492;2023-05-02T04:43:08;98005.03;;;9.53;77.42
75788;BME280;64406;50.024;14.492;2023-05-02T04:45:35;98005.84;;;9.48;77.33
75788;BME280;64406;50.024;14.492;2023-05-02T04:48:01;98012.00;;;9.54;77.68
75788;BME280;64406;50.024;14.492;2023-05-02T04:50:27;98021.16;;;9.58;77.69
75788;BME280;64406;50.024;14.492;2023-05-02T04:52:52;98026.25;;;9.60;77.80
75788;BME280;64406;50.024;14.492;2023-05-02T04:55:18;98030.56;;;9.56;77.17
75788;BME280;64406;50.024;14.492;2023-05-02T04:57:44;98029.47;;;9.57;77.06
75788;BME280;64406;50.024;14.492;2023-05-02T05:00:10;98037.00;;;9.60;77.56
75788;BME280;64406;50.024;14.492;2023-05-02T05:02:36;98030.53;;;9.61;77.43
75788;BME280;64406;50.024;14.492;2023-05-02T05:05:03;98038.59;;;9.66;76.97
75788;BME280;64406;50.024;14.492;2023-05-02T05:07:29;98042.06;;;9.66;76.71
75788;BME280;64406;50.024;14.492;2023-05-02T05:09:55;98043.38;;;9.74;76.54
75788;BME280;64406;50.024;14.492;2023-05-02T05:12:21;98046.59;;;9.76;76.95
75788;BME280;64406;50.024;14.492;2023-05-02T05:14:46;98053.56;;;9.77;76.60
75788;BME280;64406;50.024;14.492;2023-05-02T05:17:12;98049.78;;;9.83;76.80
75788;BME280;64406;50.024;14.492;2023-05-02T05:19:38;98052.75;;;9.81;76.57
75788;BME280;64406;50.024;14.492;2023-05-02T05:22:04;98048.16;;;9.82;76.66
75788;BME280;64406;50.024;14.492;2023-05-02T05:24:31;98057.84;;;9.83;76.46
75788;BME280;64406;50.024;14.492;2023-05-02T05:26:56;98059.72;;;9.88;76.07
75788;BME280;64406;50.024;14.492;2023-05-02T05:29:22;98059.97;;;9.91;76.78
75788;BME280;64406;50.024;14.492;2023-05-02T05:31:48;98068.28;;;9.95;76.47
75788;BME280;64406;50.024;14.492;2023-05-02T05:34:13;98065.06;;;9.93;76.15
75788;BME280;64406;50.024;14.492;2023-05-02T05:36:40;98058.34;;;9.90;75.96
75788;BME280;64406;50.024;14.492;2023-05-02T05:39:06;98061.56;;;9.97;76.13
75788;BME280;64406;50.024;14.492;2023-05-02T05:41:32;98063.97;;;9.99;75.75
75788;BME280;64406;50.024;14.492;2023-05-02T05:43:58;98063.41;;;9.97;75.81
75788;BME280;64406;50.024;14.492;2023-05-02T05:46:24;98070.13;;;10.04;75.78
75788;BME280;64406;50.024;14.492;2023-05-02T05:48:49;98070.13;;;10.04;76.03
75788;BME280;64406;50.024;14.492;2023-05-02T05:51:15;98069.81;;;10.11;75.70
75788;BME280;64406;50.024;14.492;2023-05-02T05:53:41;98066.84;;;10.07;75.65
75788;BME280;64406;50.024;14.492;2023-05-02T05:56:10;98072.97;;;10.23;75.57
75788;BME280;64406;50.024;14.492;2023-05-02T05:58:37;98084.19;;;10.35;75.22
75788;BME280;64406;50.024;14.492;2023-05-02T06:01:03;98074.84;;;10.23;75.06
75788;BME280;64406;50.024;14.492;2023-05-02T06:03:29;98082.09;;;10.22;75.16
75788;BME280;64406;50.024;14.492;2023-05-02T06:05:54;98087.75;;;10.31;75.55
75788;BME280;64406;50.024;14.492;2023-05-02T06:08:20;98089.81;;;10.39;74.89
75788;BME280;64406;50.024;14.492;2023-05-02T06:10:46;98094.69;;;10.37;74.73
75788;BME280;64406;50.024;14.492;2023-05-02T06:13:12;98099.50;;;10.40;75.39
75788;BME280;64406;50.024;14.492;2023-05-02T06:15:37;98104.06;;;10.45;74.71
75788;BME280;64406;50.024;14.492;2023-05-02T06:18:03;98098.09;;;10.48;74.93
75788;BME280;64406;50.024;14.492;2023-05-02T06:20:28;98108.03;;;10.52;74.82
75788;BME280;64406;50.024;14.492;2023-05-02T06:22:54;98114.47;;;10.56;74.35
75788;BME280;64406;50.024;14.492;2023-05-02T06:25:20;98117.97;;;10.57;74.82
75788;BME280;64406;50.024;14.492;2023-05-02T06:27:46;98123.06;;;10.58;74.43
75788;BME280;64406;50.024;14.492;2023-05-02T06:30:12;98122.50;;;10.61;73.96
75788;BME280;64406;50.024;14.492;2023-05-02T06:32:37;98133.84;;;10.58;74.71
75788;BME280;64406;50.024;14.492;2023-05-02T06:35:03;98130.88;;;10.60;75.35
75788;BME280;64406;50.024;14.492;2023-05-02T06:37:33;98128.28;;;10.50;75.06
75788;BME280;64406;50.024;14.492;2023-05-02T06:40:00;98130.69;;;10.46;75.95
75788;BME280;64406;50.024;14.492;2023-05-02T06:42:28;98128.84;;;10.42;76.70
75788;BME280;64406;50.024;14.492;2023-05-02T06:44:54;98136.88;;;10.47;77.12
75788;BME280;64406;50.024;14.492;2023-05-02T06:47:20;98142.28;;;10.47;77.15
75788;BME280;64406;50.024;14.492;2023-05-02T06:49:50;98143.97;;;10.38;77.74
75788;BME280;64406;50.024;14.492;2023-05-02T06:52:17;98149.66;;;10.31;77.41
75788;BME280;64406;50.024;14.492;2023-05-02T06:54:43;98138.25;;;10.44;77.82
75788;BME280;64406;50.024;14.492;2023-05-02T06:57:08;98148.25;;;10.44;77.83
75788;BME280;64406;50.024;14.492;2023-05-02T06:59:35;98141.34;;;10.61;76.74
75788;BME280;64406;50.024;14.492;2023-05-02T07:02:01;98139.81;;;10.89;76.28
75788;BME280;64406;50.024;14.492;2023-05-02T07:04:26;98143.94;;;11.11;75.68
75788;BME280;64406;50.024;14.492;2023-05-02T07:06:52;98140.56;;;11.24;74.60
75788;BME280;64406;50.024;14.492;2023-05-02T07:09:17;98148.50;;;11.39;74.35
75788;BME280;64406;50.024;14.492;2023-05-02T07:11:43;98156.41;;;11.55;73.41
75788;BME280;64406;50.024;14.492;2023-05-02T07:14:09;98161.47;;;11.61;73.20
75788;BME280;64406;50.024;14.492;2023-05-02T07:16:35;98158.84;;;11.56;73.39
75788;BME280;64406;50.024;14.492;2023-05-02T07:19:00;98162.06;;;11.58;73.58
75788;BME280;64406;50.024;14.492;2023-05-02T07:21:29;98165.38;;;11.50;72.78
75788;BME280;64406;50.024;14.492;2023-05-02T07:23:54;98165.25;;;11.60;73.93
75788;BME280;64406;50.024;14.492;2023-05-02T07:26:22;98164.97;;;11.62;72.77
75788;BME280;64406;50.024;14.492;2023-05-02T07:28:48;98173.91;;;11.86;72.16
75788;BME280;64406;50.024;14.492;2023-05-02T07:31:13;98168.66;;;11.95;72.09
75788;BME280;64406;50.024;14.492;2023-05-02T07:33:39;98180.41;;;11.85;71.77
75788;BME280;64406;50.024;14.492;2023-05-02T07:36:05;98172.22;;;12.14;71.63
75788;BME280;64406;50.024;14.492;2023-05-02T07:38:30;98172.59;;;12.27;69.40
75788;BME280;64406;50.024;14.492;2023-05-02T07:40:57;98174.00;;;12.43;69.21
75788;BME280;64406;50.024;14.492;2023-05-02T07:43:23;98175.91;;;12.42;69.06
75788;BME280;64406;50.024;14.492;2023-05-02T07:45:49;98175.91;;;12.61;67.91
75788;BME280;64406;50.024;14.492;2023-05-02T07:48:14;98170.13;;;12.68;67.82
75788;BME280;64406;50.024;14.492;2023-05-02T07:50:40;98180.69;;;12.83;68.18
75788;BME280;64406;50.024;14.492;2023-05-02T07:53:06;98184.50;;;12.63;67.18
75788;BME280;64406;50.024;14.492;2023-05-02T07:55:32;98185.59;;;12.81;67.34
75788;BME280;64406;50.024;14.492;2023-05-02T07:57:58;98193.13;;;13.17;65.36
75788;BME280;64406;50.024;14.492;2023-05-02T08:00:23;98191.84;;;13.14;65.51
75788;BME280;64406;50.024;14.492;2023-05-02T08:02:49;98196.66;;;13.17;65.85
75788;BME280;64406;50.024;14.492;2023-05-02T08:05:15;98200.03;;;13.28;64.61
75788;BME280;64406;50.024;14.492;2023-05-02T08:07:40;98204.84;;;13.12;64.97
75788;BME280;64406;50.024;14.492;2023-05-02T08:10:07;98203.72;;;13.13;64.00
75788;BME280;64406;50.024;14.492;2023-05-02T08:12:40;98209.13;;;13.32;64.15
75788;BME280;64406;50.024;14.492;2023-05-02T08:15:07;98204.09;;;13.72;63.55
75788;BME280;64406;50.024;14.492;2023-05-02T08:17:33;98204.97;;;13.53;63.11
75788;BME280;64406;50.024;14.492;2023-05-02T08:19:59;98214.13;;;13.85;63.46
75788;BME280;64406;50.024;14.492;2023-05-02T08:22:25;98207.81;;;13.76;63.28
75788;BME280;64406;50.024;14.492;2023-05-02T08:24:51;98207.81;;;14.17;62.58
75788;BME280;64406;50.024;14.492;2023-05-02T08:27:16;98210.47;;;14.45;61.56
75788;BME280;64406;50.024;14.492;2023-05-02T08:29:42;98217.53;;;14.18;62.03
75788;BME280;64406;50.024;14.492;2023-05-02T08:32:07;98220.56;;;14.03;62.28
75788;BME280;64406;50.024;14.492;2023-05-02T08:34:33;98218.25;;;14.10;61.11
75788;BME280;64406;50.024;14.492;2023-05-02T08:36:59;98218.03;;;13.79;61.52
75788;BME280;64406;50.024;14.492;2023-05-02T08:39:24;98224.97;;;13.85;62.46
75788;BME280;64406;50.024;14.492;2023-05-02T08:41:50;98224.78;;;14.23;60.97
75788;BME280;64406;50.024;14.492;2023-05-02T08:44:21;98237.69;;;13.84;61.13
75788;BME280;64406;50.024;14.492;2023-05-02T08:46:53;98235.91;;;14.49;60.03
75788;BME280;64406;50.024;14.492;2023-05-02T08:49:24;98220.50;;;14.72;60.13
75788;BME280;64406;50.024;14.492;2023-05-02T08:51:52;98229.03;;;15.01;58.74
75788;BME280;64406;50.024;14.492;2023-05-02T08:54:22;98227.34;;;14.91;59.15
75788;BME280;64406;50.024;14.492;2023-05-02T08:56:52;98240.69;;;15.24;58.07
75788;BME280;64406;50.024;14.492;2023-05-02T08:59:18;98240.53;;;15.65;57.39
75788;BME280;64406;50.024;14.492;2023-05-02T09:01:44;98247.53;;;14.63;59.35
75788;BME280;64406;50.024;14.492;2023-05-02T09:04:23;98249.22;;;15.09;58.29
75788;BME280;64406;50.024;14.492;2023-05-02T09:06:52;98241.66;;;14.83;57.77
75788;BME280;64406;50.024;14.492;2023-05-02T09:09:18;98251.06;;;15.22;57.33
75788;BME280;64406;50.024;14.492;2023-05-02T09:11:46;98247.38;;;15.40;57.86
75788;BME280;64406;50.024;14.492;2023-05-02T09:14:15;98252.28;;;15.61;55.25
75788;BME280;64406;50.024;14.492;2023-05-02T09:16:41;98253.91;;;15.39;56.05
75788;BME280;64406;50.024;14.492;2023-05-02T09:19:08;98257.88;;;15.87;55.00
75788;BME280;64406;50.024;14.492;2023-05-02T09:21:36;98265.63;;;15.71;56.32
75788;BME280;64406;50.024;14.492;2023-05-02T09:24:16;98249.31;;;16.02;54.07
75788;BME280;64406;50.024;14.492;2023-05-02T09:26:56;98244.19;;;15.92;53.60
75788;BME280;64406;50.024;14.492;2023-05-02T09:29:22;98266.88;;;15.96;54.32
75788;BME280;64406;50.024;14.492;2023-05-02T09:31:49;98269.44;;;16.41;49.79
75788;BME280;64406;50.024;14.492;2023-05-02T09:34:16;98255.28;;;16.70;49.55
75788;BME280;64406;50.024;14.492;2023-05-02T09:36:49;98283.00;;;15.92;49.28
75788;BME280;64406;50.024;14.492;2023-05-02T09:39:20;98280.81;;;16.03;48.80
75788;BME280;64406;50.024;14.492;2023-05-02T09:41:52;98271.97;;;16.28;48.57
75788;BME280;64406;50.024;14.492;2023-05-02T09:44:21;98276.59;;;16.28;48.71
75788;BME280;64406;50.024;14.492;2023-05-02T09:46:54;98270.72;;;16.35;49.41
75788;BME280;64406;50.024;14.492;2023-05-02T09:49:41;98275.19;;;17.05;48.17
75788;BME280;64406;50.024;14.492;2023-05-02T09:52:15;98272.44;;;16.88;48.00
75788;BME280;64406;50.024;14.492;2023-05-02T09:54:42;98279.66;;;16.35;50.08
75788;BME280;64406;50.024;14.492;2023-05-02T09:57:07;98279.44;;;16.23;50.34
75788;BME280;64406;50.024;14.492;2023-05-02T09:59:37;98282.25;;;16.40;49.93
75788;BME280;64406;50.024;14.492;2023-05-02T10:02:04;98284.97;;;16.97;49.26
75788;BME280;64406;50.024;14.492;2023-05-02T10:04:33;98289.25;;;16.72;49.32
75788;BME280;64406;50.024;14.492;2023-05-02T10:06:59;98275.09;;;16.53;49.45
75788;BME280;64406;50.024;14.492;2023-05-02T10:09:29;98285.56;;;16.94;47.95
75788;BME280;64406;50.024;14.492;2023-05-02T10:12:01;98292.13;;;17.54;46.74
75788;BME280;64406;50.024;14.492;2023-05-02T10:14:48;98293.25;;;17.79;47.96
75788;BME280;64406;50.024;14.492;2023-05-02T10:17:25;98290.94;;;18.07;45.44
75788;BME280;64406;50.024;14.492;2023-05-02T10:20:05;98295.94;;;18.43;44.61
75788;BME280;64406;50.024;14.492;2023-05-02T10:22:36;98297.75;;;18.21;44.82
75788;BME280;64406;50.024;14.492;2023-05-02T10:25:04;98297.38;;;17.93;44.45
75788;BME280;64406;50.024;14.492;2023-05-02T10:27:31;98299.44;;;18.05;43.46
75788;BME280;64406;50.024;14.492;2023-05-02T10:29:57;98300.34;;;18.56;43.88
75788;BME280;64406;50.024;14.492;2023-05-02T10:32:26;98303.63;;;18.41;43.67
75788;BME280;64406;50.024;14.492;2023-05-02T10:34:55;98308.88;;;18.16;41.50
75788;BME280;64406;50.024;14.492;2023-05-02T10:37:22;98308.53;;;18.86;40.98
75788;BME280;64406;50.024;14.492;2023-05-02T10:39:49;98309.31;;;19.16;40.28
75788;BME280;64406;50.024;14.492;2023-05-02T10:42:15;98299.31;;;19.20;40.98
75788;BME280;64406;50.024;14.492;2023-05-02T10:44:43;98299.97;;;19.59;41.04
75788;BME280;64406;50.024;14.492;2023-05-02T10:47:22;98297.91;;;19.89;40.39
75788;BME280;64406;50.024;14.492;2023-05-02T10:49:50;98297.72;;;18.98;41.69
75788;BME280;64406;50.024;14.492;2023-05-02T10:55:15;98300.16;;;19.87;38.92
75788;BME280;64406;50.024;14.492;2023-05-02T11:00:31;98309.13;;;20.08;39.99
75788;BME280;64406;50.024;14.492;2023-05-02T11:02:58;98303.22;;;19.52;39.34
75788;BME280;64406;50.024;14.492;2023-05-02T11:05:25;98309.81;;;19.72;38.97
75788;BME280;64406;50.024;14.492;2023-05-02T11:10:42;98299.66;;;20.18;38.90
75788;BME280;64406;50.024;14.492;2023-05-02T11:13:10;98297.50;;;20.11;38.86
75788;BME280;64406;50.024;14.492;2023-05-02T11:18:08;98298.84;;;19.18;41.36
75788;BME280;64406;50.024;14.492;2023-05-02T11:20:38;98298.22;;;19.33;40.26
75788;BME280;64406;50.024;14.492;2023-05-02T11:25:53;98300.59;;;18.34;42.59
75788;BME280;64406;50.024;14.492;2023-05-02T11:31:04;98310.59;;;18.21;41.97
75788;BME280;64406;50.024;14.492;2023-05-02T11:33:30;98308.66;;;17.83;43.79
75788;BME280;64406;50.024;14.492;2023-05-02T11:35:56;98306.72;;;17.66;44.34
75788;BME280;64406;50.024;14.492;2023-05-02T11:38:24;98303.66;;;18.32;43.21
75788;BME280;64406;50.024;14.492;2023-05-02T11:40:55;98300.06;;;18.49;43.63
75788;BME280;64406;50.024;14.492;2023-05-02T11:43:23;98317.75;;;17.87;44.39
75788;BME280;64406;50.024;14.492;2023-05-02T11:45:53;98311.69;;;17.21;44.90
75788;BME280;64406;50.024;14.492;2023-05-02T11:48:20;98313.59;;;18.37;42.80
75788;BME280;64406;50.024;14.492;2023-05-02T11:50:57;98308.25;;;18.02;42.91
75788;BME280;64406;50.024;14.492;2023-05-02T11:53:27;98310.47;;;18.09;43.46
75788;BME280;64406;50.024;14.492;2023-05-02T11:56:01;98326.72;;;18.43;43.80
75788;BME280;64406;50.024;14.492;2023-05-02T11:58:29;98310.22;;;18.99;41.98
75788;BME280;64406;50.024;14.492;2023-05-02T12:00:57;98313.44;;;18.71;42.12
75788;BME280;64406;50.024;14.492;2023-05-02T12:05:54;98319.56;;;18.60;41.76
75788;BME280;64406;50.024;14.492;2023-05-02T12:08:21;98318.72;;;17.91;43.54
75788;BME280;64406;50.024;14.492;2023-05-02T12:10:49;98326.09;;;17.04;45.48
75788;BME280;64406;50.024;14.492;2023-05-02T12:13:17;98320.31;;;16.49;46.31
75788;BME280;64406;50.024;14.492;2023-05-02T12:15:43;98323.91;;;16.58;46.44
75788;BME280;64406;50.024;14.492;2023-05-02T12:18:09;98323.59;;;16.68;46.60
75788;BME280;64406;50.024;14.492;2023-05-02T12:20:35;98323.69;;;16.46;47.53
75788;BME280;64406;50.024;14.492;2023-05-02T12:23:03;98330.50;;;16.35;48.78
75788;BME280;64406;50.024;14.492;2023-05-02T12:25:35;98336.28;;;16.33;50.65
75788;BME280;64406;50.024;14.492;2023-05-02T12:28:01;98326.69;;;16.36;50.75
75788;BME280;64406;50.024;14.492;2023-05-02T12:30:28;98331.19;;;16.09;49.15
75788;BME280;64406;50.024;14.492;2023-05-02T12:33:04;98335.22;;;16.12;50.51
75788;BME280;64406;50.024;14.492;2023-05-02T12:35:31;98338.16;;;15.93;51.37
75788;BME280;64406;50.024;14.492;2023-05-02T12:38:12;98333.88;;;16.00;52.23
75788;BME280;64406;50.024;14.492;2023-05-02T12:40:48;98329.84;;;16.29;51.55
75788;BME280;64406;50.024;14.492;2023-05-02T12:43:14;98330.66;;;16.29;49.10
75788;BME280;64406;50.024;14.492;2023-05-02T12:45:40;98333.19;;;16.26;47.39
75788;BME280;64406;50.024;14.492;2023-05-02T12:48:27;98339.03;;;16.50;47.43
75788;BME280;64406;50.024;14.492;2023-05-02T12:50:53;98337.50;;;16.58;47.19
75788;BME280;64406;50.024;14.492;2023-05-02T12:53:39;98341.03;;;16.27;46.85
75788;BME280;64406;50.024;14.492;2023-05-02T12:56:06;98335.06;;;16.56;46.83
75788;BME280;64406;50.024;14.492;2023-05-02T12:58:45;98337.09;;;16.42;46.93
75788;BME280;64406;50.024;14.492;2023-05-02T13:01:12;98338.69;;;16.83;46.25
75788;BME280;64406;50.024;14.492;2023-05-02T13:03:38;98337.59;;;16.93;46.03
75788;BME280;64406;50.024;14.492;2023-05-02T13:06:04;98350.28;;;17.06;45.13
75788;BME280;64406;50.024;14.492;2023-05-02T13:08:31;98349.91;;;16.90;45.31
75788;BME280;64406;50.024;14.492;2023-05-02T13:10:58;98353.28;;;16.87;45.04
75788;BME280;64406;50.024;14.492;2023-05-02T13:13:23;98354.69;;;16.76;45.41
75788;BME280;64406;50.024;14.492;2023-05-02T13:15:49;98358.53;;;16.75;45.58
75788;BME280;64406;50.024;14.492;2023-05-02T13:18:15;98358.53;;;16.44;46.12
75788;BME280;64406;50.024;14.492;2023-05-02T13:20:41;98351.25;;;16.62;45.55
75788;BME280;64406;50.024;14.492;2023-05-02T13:23:06;98360.06;;;16.58;45.75
75788;BME280;64406;50.024;14.492;2023-05-02T13:25:32;98344.03;;;16.57;46.18
75788;BME280;64406;50.024;14.492;2023-05-02T13:27:57;98366.09;;;16.55;45.55
75788;BME280;64406;50.024;14.492;2023-05-02T13:30:23;98353.81;;;16.58;46.05
75788;BME280;64406;50.024;14.492;2023-05-02T13:32:49;98361.97;;;16.58;45.87